createdAt,value
2022-11-21T00:01:23.170Z,100591.72
2022-11-21T00:03:50.332Z,100588.84
2022-11-21T00:06:17.948Z,100599.66
2022-11-21T00:08:44.993Z,100587.84
2022-11-21T00:11:11.698Z,100592.63
2022-11-21T00:13:39.062Z,100596.41
2022-11-21T00:16:09.851Z,100609.19
2022-11-21T00:18:36.948Z,100612.00
2022-11-21T00:21:07.791Z,100603.75
2022-11-21T00:23:34.517Z,100625.88
2022-11-21T00:26:05.203Z,100621.69
2022-11-21T00:28:31.768Z,100623.78
2022-11-21T00:30:58.312Z,100612.72
2022-11-21T00:33:27.346Z,100600.94
2022-11-21T00:35:53.902Z,100596.72
2022-11-21T00:38:20.545Z,100600.47
2022-11-21T00:40:47.045Z,100601.44
2022-11-21T00:43:13.614Z,100598.63
2022-11-21T00:45:40.168Z,100605.41
2022-11-21T00:48:07.237Z,100603.69
2022-11-21T00:50:33.846Z,100580.16
2022-11-21T00:53:00.418Z,100588.66
2022-11-21T00:55:31.767Z,100611.53
2022-11-21T00:57:58.282Z,100591.75
2022-11-21T01:00:24.904Z,100611.16
2022-11-21T01:02:51.432Z,100597.53
2022-11-21T01:05:20.529Z,100600.69
2022-11-21T01:07:49.176Z,100605.53
2022-11-21T01:10:15.767Z,100615.34
2022-11-21T01:12:45.443Z,100591.97
2022-11-21T01:15:12.301Z,100622.25
2022-11-21T01:17:38.873Z,100627.75
2022-11-21T01:20:07.069Z,100614.47
2022-11-21T01:22:33.695Z,100608.34
2022-11-21T01:25:00.224Z,100596.03
2022-11-21T01:27:26.752Z,100608.00
2022-11-21T01:29:55.755Z,100605.53
2022-11-21T01:32:22.366Z,100596.78
2022-11-21T01:34:48.961Z,100608.72
2022-11-21T01:37:17.697Z,100603.69
2022-11-21T01:39:44.653Z,100606.09
2022-11-21T01:42:13.775Z,100609.03
2022-11-21T01:44:55.185Z,100594.03
2022-11-21T01:47:23.994Z,100585.91
2022-11-21T01:49:52.743Z,100602.63
2022-11-21T01:52:31.050Z,100590.88
2022-11-21T01:55:03.047Z,100585.56
2022-11-21T01:57:43.413Z,100606.50
2022-11-21T02:00:16.576Z,100607.13
2022-11-21T02:02:51.384Z,100591.63
2022-11-21T02:05:22.043Z,100596.31
2022-11-21T02:07:50.813Z,100596.53
2022-11-21T02:10:20.540Z,100603.69
2022-11-21T02:12:53.745Z,100615.00
2022-11-21T02:15:23.841Z,100595.34
2022-11-21T02:17:50.475Z,100596.31
2022-11-21T02:20:23.618Z,100595.91
2022-11-21T02:22:58.669Z,100607.56
2022-11-21T02:25:30.719Z,100609.31
2022-11-21T02:28:03.045Z,100627.25
2022-11-21T02:30:36.962Z,100630.94
2022-11-21T02:33:03.689Z,100621.22
2022-11-21T02:35:30.539Z,100621.81
2022-11-21T02:38:03.949Z,100629.69
2022-11-21T02:40:43.432Z,100618.84
2022-11-21T02:43:33.077Z,100624.56
2022-11-21T02:45:59.629Z,100619.84
2022-11-21T02:48:26.162Z,100622.66
2022-11-21T02:50:52.721Z,100634.97
2022-11-21T02:53:21.575Z,100638.31
2022-11-21T02:55:48.177Z,100633.75
2022-11-21T02:58:15.385Z,100608.66
2022-11-21T03:00:43.630Z,100639.78
2022-11-21T03:03:12.477Z,100627.38
2022-11-21T03:05:41.916Z,100633.53
2022-11-21T03:08:10.749Z,100620.25
2022-11-21T03:10:37.806Z,100615.47
2022-11-21T03:13:04.442Z,100612.44
2022-11-21T03:15:34.113Z,100582.09
2022-11-21T03:18:03.245Z,100597.59
2022-11-21T03:20:31.501Z,100588.78
2022-11-21T03:22:58.202Z,100606.72
2022-11-21T03:25:24.948Z,100593.44
2022-11-21T03:27:53.410Z,100591.69
2022-11-21T03:30:24.819Z,100590.00
2022-11-21T03:32:55.101Z,100590.75
2022-11-21T03:35:21.586Z,100590.13
2022-11-21T03:37:51.087Z,100594.22
2022-11-21T03:40:17.733Z,100603.56
2022-11-21T03:42:44.598Z,100594.59
2022-11-21T03:45:11.420Z,100591.00
2022-11-21T03:47:37.937Z,100597.03
2022-11-21T03:50:07.263Z,100578.94
2022-11-21T03:52:33.946Z,100580.28
2022-11-21T03:55:00.494Z,100583.91
2022-11-21T03:57:27.218Z,100595.56
2022-11-21T03:59:53.714Z,100586.22
2022-11-21T04:02:20.317Z,100603.16
2022-11-21T04:04:46.822Z,100602.31
2022-11-21T04:07:13.357Z,100614.84
2022-11-21T04:09:39.923Z,100599.84
2022-11-21T04:12:08.018Z,100599.19
2022-11-21T04:14:35.002Z,100599.19
2022-11-21T04:17:01.617Z,100599.69
2022-11-21T04:19:28.180Z,100602.50
2022-11-21T04:21:54.728Z,100603.69
2022-11-21T04:24:21.277Z,100588.56
2022-11-21T04:26:47.759Z,100590.25
2022-11-21T04:29:14.550Z,100588.97
2022-11-21T04:31:41.454Z,100550.44
2022-11-21T04:34:07.948Z,100577.66
2022-11-21T04:36:34.643Z,100574.34
2022-11-21T04:39:01.188Z,100574.84
2022-11-21T04:41:28.028Z,100576.34
2022-11-21T04:43:54.686Z,100566.13
2022-11-21T04:46:21.219Z,100573.13
2022-11-21T04:48:47.717Z,100561.28
2022-11-21T04:51:14.392Z,100581.25
2022-11-21T04:53:43.064Z,100571.41
2022-11-21T04:56:10.208Z,100568.00
2022-11-21T04:58:36.800Z,100564.03
2022-11-21T05:01:08.223Z,100540.19
2022-11-21T05:03:35.194Z,100554.41
2022-11-21T05:06:04.074Z,100550.13
2022-11-21T05:08:32.837Z,100555.59
2022-11-21T05:11:18.024Z,100550.19
2022-11-21T05:13:44.553Z,100548.59
2022-11-21T05:16:11.357Z,100538.28
2022-11-21T05:18:37.923Z,100520.69
2022-11-21T05:21:04.606Z,100537.81
2022-11-21T05:23:31.185Z,100526.91
2022-11-21T05:26:00.261Z,100526.66
2022-11-21T05:28:27.092Z,100508.06
2022-11-21T05:30:53.741Z,100502.56
2022-11-21T05:33:20.565Z,100525.78
2022-11-21T05:35:49.473Z,100506.25
2022-11-21T05:38:16.072Z,100512.88
2022-11-21T05:40:42.619Z,100510.94
2022-11-21T05:43:30.201Z,100507.38
2022-11-21T05:45:56.813Z,100495.81
2022-11-21T05:48:23.394Z,100512.06
2022-11-21T05:50:50.509Z,100515.25
2022-11-21T05:53:17.619Z,100513.56
2022-11-21T05:55:49.339Z,100515.13
2022-11-21T05:58:16.676Z,100484.16
2022-11-21T06:00:43.229Z,100503.94
2022-11-21T06:03:30.599Z,100506.03
2022-11-21T06:06:07.900Z,100497.81
2022-11-21T06:08:42.068Z,100490.19
2022-11-21T06:11:11.503Z,100488.22
2022-11-21T06:13:38.224Z,100504.69
2022-11-21T06:16:10.561Z,100504.78
2022-11-21T06:18:41.539Z,100500.50
2022-11-21T06:21:12.361Z,100488.81
2022-11-21T06:23:39.237Z,100491.28
2022-11-21T06:26:11.737Z,100504.06
2022-11-21T06:28:40.391Z,100498.56
2022-11-21T06:31:09.097Z,100473.75
2022-11-21T06:33:39.104Z,100485.53
2022-11-21T06:36:11.001Z,100465.75
2022-11-21T06:38:37.897Z,100463.06
2022-11-21T06:41:12.149Z,100478.91
2022-11-21T06:43:39.138Z,100466.00
2022-11-21T06:46:08.470Z,100465.03
2022-11-21T06:48:36.368Z,100452.13
2022-11-21T06:51:07.669Z,100457.88
2022-11-21T06:53:34.965Z,100458.25
2022-11-21T06:56:02.584Z,100453.56
2022-11-21T06:58:29.294Z,100449.88
2022-11-21T07:00:56.390Z,100437.34
2022-11-21T07:03:25.701Z,100443.88
2022-11-21T07:05:58.553Z,100436.63
2022-11-21T07:08:25.334Z,100440.69
2022-11-21T07:11:17.785Z,100454.81
2022-11-21T07:13:38.610Z,100459.84
2022-11-21T07:16:17.602Z,100463.28
2022-11-21T07:18:46.563Z,100458.13
2022-11-21T07:21:13.185Z,100445.94
2022-11-21T07:23:42.723Z,100445.44
2022-11-21T07:26:11.021Z,100431.28
2022-11-21T07:28:39.868Z,100435.13
2022-11-21T07:31:12.912Z,100432.44
2022-11-21T07:33:40.261Z,100442.59
2022-11-21T07:36:07.380Z,100436.47
2022-11-21T07:38:34.139Z,100447.50
2022-11-21T07:41:03.686Z,100440.88
2022-11-21T07:43:30.247Z,100424.00
2022-11-21T07:45:56.789Z,100434.19
2022-11-21T07:48:23.380Z,100436.91
2022-11-21T07:50:50.022Z,100431.63
2022-11-21T07:53:18.673Z,100433.81
2022-11-21T07:55:45.311Z,100431.72
2022-11-21T07:58:15.035Z,100428.88
2022-11-21T08:00:45.214Z,100430.13
2022-11-21T08:03:13.210Z,100440.28
2022-11-21T08:05:42.047Z,100421.06
2022-11-21T08:08:10.140Z,100421.91
2022-11-21T08:10:42.388Z,100415.47
2022-11-21T08:13:09.205Z,100408.50
2022-11-21T08:15:36.514Z,100406.63
2022-11-21T08:18:09.695Z,100427.78
2022-11-21T08:20:36.344Z,100416.22
2022-11-21T08:23:03.097Z,100407.22
2022-11-21T08:25:30.478Z,100397.00
2022-11-21T08:27:58.201Z,100387.31
2022-11-21T08:30:27.412Z,100402.59
2022-11-21T08:32:54.033Z,100381.00
2022-11-21T08:35:23.074Z,100394.28
2022-11-21T08:37:49.804Z,100391.69
2022-11-21T08:40:18.626Z,100377.88
2022-11-21T08:42:45.195Z,100379.06
2022-11-21T08:45:14.218Z,100356.91
2022-11-21T08:47:43.012Z,100353.63
2022-11-21T08:50:11.769Z,100362.63
2022-11-21T08:52:40.522Z,100339.72
2022-11-21T08:55:08.146Z,100358.53
2022-11-21T08:57:41.718Z,100343.66
2022-11-21T09:00:12.556Z,100356.81
2022-11-21T09:02:39.101Z,100349.50
2022-11-21T09:05:06.279Z,100352.66
2022-11-21T09:07:32.745Z,100348.91
2022-11-21T09:09:59.362Z,100364.91
2022-11-21T09:12:25.947Z,100347.63
2022-11-21T09:15:11.270Z,100340.72
2022-11-21T09:17:56.641Z,100318.66
2022-11-21T09:20:23.641Z,100334.72
2022-11-21T09:22:50.409Z,100341.00
2022-11-21T09:25:19.429Z,100335.44
2022-11-21T09:27:47.048Z,100330.56
2022-11-21T09:30:14.034Z,100329.88
2022-11-21T09:32:40.757Z,100315.31
2022-11-21T09:35:08.016Z,100312.88
2022-11-21T09:37:38.323Z,100330.28
2022-11-21T09:40:08.041Z,100326.16
2022-11-21T09:42:53.858Z,100304.16
2022-11-21T09:45:26.425Z,100305.53
2022-11-21T09:47:53.353Z,100296.97
2022-11-21T09:50:35.730Z,100309.06
2022-11-21T09:53:16.166Z,100284.34
2022-11-21T09:55:47.581Z,100288.06
2022-11-21T09:58:42.278Z,100302.88
2022-11-21T10:01:14.022Z,100299.88
2022-11-21T10:03:49.325Z,100292.25
2022-11-21T10:06:24.319Z,100290.53
2022-11-21T10:09:06.150Z,100288.66
2022-11-21T10:12:11.391Z,100281.97
2022-11-21T10:14:37.927Z,100285.00
2022-11-21T10:17:38.477Z,100273.38
2022-11-21T10:20:29.305Z,100264.34
2022-11-21T10:23:00.473Z,100274.91
2022-11-21T10:25:33.386Z,100248.88
2022-11-21T10:28:13.867Z,100246.00
2022-11-21T10:30:50.614Z,100244.69
2022-11-21T10:33:33.876Z,100254.81
2022-11-21T10:36:12.152Z,100243.66
2022-11-21T10:38:41.718Z,100246.31
2022-11-21T10:41:31.214Z,100244.13
2022-11-21T10:44:42.079Z,100238.69
2022-11-21T10:47:27.969Z,100233.56
2022-11-21T10:50:09.535Z,100231.53
2022-11-21T10:52:49.415Z,100232.06
2022-11-21T10:55:17.812Z,100219.19
2022-11-21T10:57:49.785Z,100226.47
2022-11-21T11:00:26.926Z,100215.59
2022-11-21T11:02:56.531Z,100216.41
2022-11-21T11:05:25.457Z,100210.19
2022-11-21T11:08:12.487Z,100210.34
2022-11-21T11:10:41.230Z,100195.25
2022-11-21T11:13:52.502Z,100189.03
2022-11-21T11:16:24.465Z,100192.66
2022-11-21T11:19:14.136Z,100192.56
2022-11-21T11:21:44.364Z,100189.56
2022-11-21T11:24:13.446Z,100175.84
2022-11-21T11:26:49.527Z,100179.34
2022-11-21T11:29:28.289Z,100174.94
2022-11-21T11:32:05.171Z,100157.41
2022-11-21T11:34:49.049Z,100156.94
2022-11-21T11:37:40.424Z,100163.09
2022-11-21T11:40:07.666Z,100159.22
2022-11-21T11:43:05.352Z,100148.50
2022-11-21T11:46:15.864Z,100137.44
2022-11-21T11:49:11.308Z,100126.06
2022-11-21T11:51:46.984Z,100107.16
2022-11-21T11:54:29.887Z,100094.03
2022-11-21T11:56:59.887Z,100096.13
2022-11-21T11:59:32.910Z,100086.06
2022-11-21T12:02:29.206Z,100088.63
2022-11-21T12:04:59.241Z,100062.88
2022-11-21T12:10:26.199Z,100076.47
2022-11-21T12:12:58.440Z,100050.06
2022-11-21T12:15:48.897Z,100038.59
2022-11-21T12:18:15.393Z,100057.84
2022-11-21T12:20:59.319Z,100045.78
2022-11-21T12:23:36.898Z,100029.25
2022-11-21T12:26:36.356Z,100034.50
2022-11-21T12:29:25.743Z,100034.81
2022-11-21T12:32:07.269Z,100025.75
2022-11-21T12:34:59.860Z,100023.03
2022-11-21T12:37:47.028Z,100023.03
2022-11-21T12:40:19.934Z,100014.88
2022-11-21T12:42:49.409Z,100002.47
2022-11-21T12:45:37.885Z,99999.25
2022-11-21T12:48:54.652Z,99992.59
2022-11-21T12:51:55.522Z,99998.94
2022-11-21T12:54:40.115Z,99996.88
2022-11-21T12:57:20.609Z,99981.53
2022-11-21T12:59:50.727Z,99976.81
2022-11-21T13:02:39.528Z,99967.09
2022-11-21T13:05:12.676Z,99955.84
2022-11-21T13:07:41.013Z,99950.22
2022-11-21T13:10:16.185Z,99946.50
2022-11-21T13:13:09.939Z,99936.59
2022-11-21T13:16:00.610Z,99930.13
2022-11-21T13:18:44.296Z,99915.97
2022-11-21T13:21:46.168Z,99903.03
2022-11-21T13:24:44.948Z,99897.06
2022-11-21T13:27:38.148Z,99880.88
2022-11-21T13:30:11.485Z,99892.81
2022-11-21T13:32:42.102Z,99897.22
2022-11-21T13:35:22.141Z,99890.25
2022-11-21T13:38:13.302Z,99877.31
2022-11-21T13:41:08.045Z,99877.97
2022-11-21T13:43:35.688Z,99880.69
2022-11-21T13:46:28.660Z,99876.94
2022-11-21T13:49:04.848Z,99879.81
2022-11-21T13:51:50.554Z,99863.25
2022-11-21T13:54:38.811Z,99861.91
2022-11-21T13:57:19.610Z,99848.59
2022-11-21T13:59:47.069Z,99856.78
2022-11-21T14:02:39.775Z,99849.09
2022-11-21T14:05:25.037Z,99822.69
2022-11-21T14:07:51.837Z,99842.41
2022-11-21T14:10:25.291Z,99837.47
2022-11-21T14:12:54.891Z,99835.09
2022-11-21T14:15:40.225Z,99823.66
2022-11-21T14:18:22.645Z,99825.84
2022-11-21T14:20:53.923Z,99800.16
2022-11-21T14:23:22.697Z,99796.06
2022-11-21T14:25:54.235Z,99791.47
2022-11-21T14:28:32.497Z,99789.63
2022-11-21T14:31:07.624Z,99792.34
2022-11-21T14:33:36.256Z,99799.63
2022-11-21T14:36:14.739Z,99796.06
2022-11-21T14:39:07.577Z,99791.69
2022-11-21T14:41:37.828Z,99777.84
2022-11-21T14:44:13.798Z,99782.81
2022-11-21T14:46:42.173Z,99786.56
2022-11-21T14:49:23.316Z,99765.47
2022-11-21T14:51:59.991Z,99755.06
2022-11-21T14:54:31.990Z,99764.09
2022-11-21T14:57:08.943Z,99765.13
2022-11-21T14:59:43.588Z,99754.75
2022-11-21T15:02:21.165Z,99748.97
2022-11-21T15:04:50.105Z,99740.97
2022-11-21T15:07:26.945Z,99740.16
2022-11-21T15:13:16.069Z,99716.84
2022-11-21T15:15:47.215Z,99721.75
2022-11-21T15:18:28.632Z,99701.00
2022-11-21T15:21:00.698Z,99706.78
2022-11-21T15:23:33.175Z,99694.56
2022-11-21T15:26:04.733Z,99700.84
2022-11-21T15:28:31.902Z,99698.78
2022-11-21T15:31:17.391Z,99696.56
2022-11-21T15:34:34.148Z,99672.53
2022-11-21T15:37:17.362Z,99674.25
2022-11-21T15:39:55.742Z,99676.13
2022-11-21T15:42:31.502Z,99666.41
2022-11-21T15:44:59.333Z,99658.59
2022-11-21T15:47:26.075Z,99634.09
2022-11-21T15:49:55.233Z,99631.41
2022-11-21T15:52:24.212Z,99615.22
2022-11-21T15:54:50.866Z,99623.72
2022-11-21T15:59:50.346Z,99633.25
2022-11-21T16:02:17.092Z,99635.09
2022-11-21T16:04:43.733Z,99634.91
2022-11-21T16:07:10.405Z,99615.56
2022-11-21T16:09:40.881Z,99616.75
2022-11-21T16:12:09.263Z,99615.38
2022-11-21T16:14:35.794Z,99620.34
2022-11-21T16:17:04.867Z,99627.81
2022-11-21T16:19:31.665Z,99620.19
2022-11-21T16:21:58.491Z,99617.63
2022-11-21T16:24:24.962Z,99613.03
2022-11-21T16:26:54.534Z,99591.28
2022-11-21T16:29:23.406Z,99605.75
2022-11-21T16:31:50.435Z,99587.72
2022-11-21T16:34:20.240Z,99582.13
2022-11-21T16:36:46.879Z,99570.56
2022-11-21T16:39:29.587Z,99559.53
2022-11-21T16:41:59.091Z,99552.22
2022-11-21T16:44:29.877Z,99557.31
2022-11-21T16:46:56.431Z,99558.66
2022-11-21T16:49:25.408Z,99545.22
2022-11-21T16:51:52.141Z,99541.03
2022-11-21T16:54:18.775Z,99553.88
2022-11-21T16:56:45.339Z,99557.97
2022-11-21T16:59:11.911Z,99557.28
2022-11-21T17:01:38.653Z,99539.63
2022-11-21T17:04:05.506Z,99531.47
2022-11-21T17:06:32.103Z,99531.78
2022-11-21T17:09:01.070Z,99519.25
2022-11-21T17:11:31.076Z,99510.22
2022-11-21T17:14:03.756Z,99506.16
2022-11-21T17:16:31.336Z,99509.88
2022-11-21T17:19:00.421Z,99495.97
2022-11-21T17:21:30.344Z,99485.94
2022-11-21T17:23:57.588Z,99491.69
2022-11-21T17:26:26.785Z,99485.25
2022-11-21T17:29:03.673Z,99478.13
2022-11-21T17:31:30.996Z,99476.09
2022-11-21T17:34:01.893Z,99472.19
2022-11-21T17:36:30.138Z,99466.91
2022-11-21T17:38:58.918Z,99467.59
2022-11-21T17:41:26.185Z,99458.75
2022-11-21T17:43:58.917Z,99467.59
2022-11-21T17:46:26.108Z,99457.09
2022-11-21T17:48:57.145Z,99457.25
2022-11-21T17:51:34.495Z,99447.22
2022-11-21T17:54:01.972Z,99430.75
2022-11-21T17:56:31.993Z,99437.53
2022-11-21T17:58:59.028Z,99441.97
2022-11-21T18:01:25.964Z,99435.88
2022-11-21T18:03:57.220Z,99441.97
2022-11-21T18:06:25.597Z,99426.69
2022-11-21T18:08:52.390Z,99437.53
2022-11-21T18:11:24.247Z,99443.84
2022-11-21T18:13:51.090Z,99427.19
2022-11-21T18:16:20.775Z,99426.84
2022-11-21T18:18:49.569Z,99430.94
2022-11-21T18:21:19.072Z,99409.22
2022-11-21T18:23:47.135Z,99408.88
2022-11-21T18:26:22.204Z,99394.97
2022-11-21T18:29:13.429Z,99384.94
2022-11-21T18:31:42.786Z,99402.97
2022-11-21T18:34:09.963Z,99396.31
2022-11-21T18:36:36.640Z,99384.13
2022-11-21T18:39:08.717Z,99391.94
2022-11-21T18:41:41.044Z,99383.97
2022-11-21T18:44:07.802Z,99394.31
2022-11-21T18:46:36.528Z,99385.66
2022-11-21T18:49:07.723Z,99385.16
2022-11-21T18:51:35.622Z,99380.75
2022-11-21T18:54:06.703Z,99370.22
2022-11-21T18:56:34.456Z,99352.06
2022-11-21T18:59:01.863Z,99370.91
2022-11-21T19:01:30.273Z,99342.88
2022-11-21T19:03:57.451Z,99370.22
2022-11-21T19:06:28.285Z,99365.63
2022-11-21T19:08:58.344Z,99333.38
2022-11-21T19:11:27.784Z,99351.38
2022-11-21T19:14:43.464Z,99340.88
2022-11-21T19:17:10.406Z,99344.09
2022-11-21T19:19:39.361Z,99337.09
2022-11-21T19:22:06.405Z,99317.94
2022-11-21T19:24:33.497Z,99345.41
2022-11-21T19:27:00.129Z,99345.41
2022-11-21T19:29:26.972Z,99329.66
2022-11-21T19:31:56.277Z,99326.94
2022-11-21T19:34:22.831Z,99316.59
2022-11-21T19:36:51.746Z,99320.66
2022-11-21T19:39:18.350Z,99311.16
2022-11-21T19:41:44.929Z,99315.56
2022-11-21T19:44:11.605Z,99313.16
2022-11-21T19:46:41.603Z,99305.03
2022-11-21T19:49:11.234Z,99305.72
2022-11-21T19:51:40.519Z,99279.44
2022-11-21T19:54:09.258Z,99308.78
2022-11-21T19:56:36.457Z,99311.16
2022-11-21T19:59:04.291Z,99288.41
2022-11-21T20:01:33.536Z,99304.69
2022-11-21T20:04:04.953Z,99295.22
2022-11-21T20:06:37.971Z,99303.53
2022-11-21T20:09:11.376Z,99274.34
2022-11-21T20:11:40.386Z,99270.78
2022-11-21T20:14:07.293Z,99268.91
2022-11-21T20:16:42.932Z,99252.63
2022-11-21T20:19:15.053Z,99255.84
2022-11-21T20:21:43.170Z,99256.00
2022-11-21T20:24:10.968Z,99245.66
2022-11-21T20:26:37.630Z,99236.69
2022-11-21T20:29:07.140Z,99258.38
2022-11-21T20:31:37.302Z,99240.94
2022-11-21T20:34:07.379Z,99241.25
2022-11-21T20:36:36.937Z,99243.97
2022-11-21T20:39:12.924Z,99234.47
2022-11-21T20:41:41.783Z,99235.00
2022-11-21T20:47:03.016Z,99245.31
2022-11-21T20:49:29.900Z,99239.91
2022-11-21T20:54:43.294Z,99222.28
2022-11-21T20:57:14.848Z,99224.31
2022-11-21T20:59:41.998Z,99221.59
2022-11-21T21:02:12.329Z,99219.22
2022-11-21T21:04:39.133Z,99216.69
2022-11-21T21:07:05.707Z,99219.91
2022-11-21T21:09:32.434Z,99198.03
2022-11-21T21:11:59.108Z,99210.75
2022-11-21T21:14:25.743Z,99205.31
2022-11-21T21:16:52.272Z,99178.88
2022-11-21T21:19:19.111Z,99206.16
2022-11-21T21:21:46.035Z,99190.38
2022-11-21T21:24:15.954Z,99204.44
2022-11-21T21:26:47.697Z,99194.97
2022-11-21T21:29:18.226Z,99189.00
2022-11-21T21:31:50.408Z,99194.81
2022-11-21T21:34:18.253Z,99196.81
2022-11-21T21:36:45.142Z,99183.97
2022-11-21T21:39:12.037Z,99191.06
2022-11-21T21:41:44.702Z,99194.44
2022-11-21T21:44:11.787Z,99195.81
2022-11-21T21:46:38.338Z,99182.25
2022-11-21T21:49:05.249Z,99189.38
2022-11-21T21:51:32.325Z,99185.47
2022-11-21T21:54:02.162Z,99178.16
2022-11-21T21:56:29.563Z,99186.47
2022-11-21T21:59:00.636Z,99173.44
2022-11-21T22:01:30.190Z,99172.56
2022-11-21T22:04:01.214Z,99182.41
2022-11-21T22:06:28.714Z,99187.00
2022-11-21T22:08:56.066Z,99180.22
2022-11-21T22:11:27.607Z,99175.66
2022-11-21T22:14:00.011Z,99168.69
2022-11-21T22:16:27.070Z,99168.19
2022-11-21T22:18:54.132Z,99165.31
2022-11-21T22:21:33.520Z,99171.06
2022-11-21T22:24:24.212Z,99160.53
2022-11-21T22:26:51.082Z,99158.16
2022-11-21T22:29:20.815Z,99157.66
2022-11-21T22:31:47.406Z,99167.84
2022-11-21T22:34:14.439Z,99150.53
2022-11-21T22:36:41.610Z,99150.88
2022-11-21T22:39:08.258Z,99147.97
2022-11-21T22:41:37.130Z,99162.59
2022-11-21T22:44:04.004Z,99160.53
2022-11-21T22:46:31.267Z,99158.84
2022-11-21T22:48:58.221Z,99151.72
2022-11-21T22:51:27.088Z,99128.50
2022-11-21T22:53:53.826Z,99150.69
2022-11-21T22:56:22.437Z,99152.41
2022-11-21T22:58:49.440Z,99150.03
2022-11-21T23:01:19.179Z,99142.06
2022-11-21T23:03:46.440Z,99131.19
2022-11-21T23:06:15.732Z,99148.50
2022-11-21T23:08:43.151Z,99138.50
2022-11-21T23:11:10.947Z,99152.91
2022-11-21T23:13:39.759Z,99140.72
2022-11-21T23:16:07.470Z,99142.03
2022-11-21T23:18:35.153Z,99142.03
2022-11-21T23:21:02.416Z,99136.78
2022-11-21T23:23:31.716Z,99138.50
2022-11-21T23:25:58.565Z,99143.09
2022-11-21T23:28:25.897Z,99131.19
2022-11-21T23:30:52.571Z,99129.00
2022-11-21T23:33:19.418Z,99130.03
2022-11-21T23:35:46.992Z,99132.56
2022-11-21T23:38:15.264Z,99151.06
2022-11-21T23:40:42.056Z,99130.03
2022-11-21T23:43:11.169Z,99132.72
2022-11-21T23:45:42.245Z,99123.06
2022-11-21T23:48:11.189Z,99145.44
2022-11-21T23:50:40.079Z,99152.56
2022-11-21T23:53:06.618Z,99161.53
2022-11-21T23:55:36.165Z,99129.72
2022-11-21T23:58:02.733Z,99155.63
